Time;durP1;ratioP1;P1;durP2;ratioP2;P2;SDS_P1;SDS_P2;PMS_P1;PMS_P2;Temp;Humidity;BMP_temperature;BMP_pressure;BME280_temperature;BME280_humidity;BME280_pressure;Samples;Min_cycle;Max_cycle;Signal;HPM_P1;HPM_P2
2022/03/17 00:00:14;;;;;;;11.95;6.03;;;;;;;-4.48;40.65;102288.03;4844635;29;20045;-82
2022/03/17 00:02:41;;;;;;;10.38;5.32;;;;;;;-4.91;40.71;102219.78;4843784;29;20045;-80
2022/03/17 00:05:10;;;;;;;11.00;5.18;;;;;;;-4.49;41.17;102296.41;4828151;29;20108;-80
2022/03/17 00:07:36;;;;;;;11.68;5.47;;;;;;;-5.28;41.15;102178.28;4855873;29;20042;-81
2022/03/17 00:10:11;;;;;;;11.77;4.60;;;;;;;-4.80;41.18;102263.97;4843410;29;20042;-81
2022/03/17 00:12:37;;;;;;;10.25;5.07;;;;;;;-6.01;41.17;102038.75;4847608;29;20070;-82
2022/03/17 00:15:06;;;;;;;11.70;5.22;;;;;;;-4.96;40.95;102221.00;4842730;29;20124;-81
2022/03/17 00:17:33;;;;;;;14.20;5.50;;;;;;;-5.07;41.02;102196.25;4839991;29;20041;-82
2022/03/17 00:19:59;;;;;;;11.40;5.10;;;;;;;-4.66;41.42;102274.53;4848641;29;20092;-81
2022/03/17 00:22:25;;;;;;;11.98;4.80;;;;;;;-5.01;40.90;102207.88;4843333;29;20085;-83
2022/03/17 00:24:51;;;;;;;9.18;4.90;;;;;;;-4.78;40.92;102248.88;4841165;29;20402;-82
2022/03/17 00:27:17;;;;;;;12.60;4.57;;;;;;;-4.86;41.30;102233.81;4855637;29;20125;-81
2022/03/17 00:29:43;;;;;;;10.38;4.75;;;;;;;-4.75;41.19;102256.78;4841964;29;20037;-82
2022/03/17 00:32:09;;;;;;;11.55;4.75;;;;;;;-5.02;40.92;102182.34;4849508;29;20502;-83
2022/03/17 00:35:35;;;;;;;9.45;5.03;;;;;;;-5.02;40.97;102195.06;4841721;29;21812;-79
2022/03/17 00:37:25;;;;;;;10.27;4.95;;;;;;;-4.58;41.24;102256.69;4842095;29;20054;-80
2022/03/17 00:39:53;;;;;;;9.30;5.03;;;;;;;-4.84;41.00;102231.41;4839968;29;20378;-80
2022/03/17 00:42:19;;;;;;;9.07;4.95;;;;;;;-5.30;41.13;102157.84;4841998;29;20046;-82
2022/03/17 00:44:46;;;;;;;14.48;5.05;;;;;;;-5.25;40.96;102178.56;4855762;29;20145;-80
2022/03/17 00:47:13;;;;;;;10.23;5.10;;;;;;;-5.15;41.33;102183.75;4847814;29;20045;-80
2022/03/17 00:49:40;;;;;;;9.38;5.07;;;;;;;-5.25;40.87;102176.03;4855021;29;20041;-82
2022/03/17 00:52:10;;;;;;;8.90;5.13;;;;;;;-4.69;41.75;102277.66;4839744;29;20539;-79
2022/03/17 00:54:37;;;;;;;12.55;5.78;;;;;;;-4.68;41.46;102289.63;4838092;29;20049;-83
2022/03/17 00:57:03;;;;;;;10.85;5.50;;;;;;;-5.20;41.30;102217.09;4839353;29;20034;-81
2022/03/17 00:59:29;;;;;;;11.75;5.53;;;;;;;-5.07;41.56;102240.31;4847132;29;20056;-81
2022/03/17 01:01:55;;;;;;;9.02;5.07;;;;;;;-4.86;41.61;102276.13;4852006;29;20038;-82
2022/03/17 01:04:21;;;;;;;12.57;5.85;;;;;;;-4.81;41.70;102271.47;4853898;29;20501;-82
2022/03/17 01:06:47;;;;;;;8.73;5.03;;;;;;;-5.08;41.57;102233.47;4841830;29;20040;-80
2022/03/17 01:09:13;;;;;;;10.02;4.85;;;;;;;-5.46;41.86;102164.75;4822642;29;20050;-81
2022/03/17 01:11:39;;;;;;;13.70;5.28;;;;;;;-5.01;41.16;102245.97;4840828;29;20061;-83
2022/03/17 01:14:06;;;;;;;11.85;4.85;;;;;;;-5.02;41.76;102240.78;4824612;29;20046;-80
2022/03/17 01:16:33;;;;;;;8.60;4.85;;;;;;;-5.21;41.54;102218.75;4839686;29;20056;-80
2022/03/17 01:18:58;;;;;;;9.15;4.90;;;;;;;-4.66;41.58;102312.66;4839391;29;20050;-82
2022/03/17 01:21:24;;;;;;;10.50;4.95;;;;;;;-4.67;41.04;102326.09;4839262;29;20079;-81
2022/03/17 01:23:51;;;;;;;10.00;4.78;;;;;;;-4.89;41.52;102288.53;4839316;29;20038;-79
2022/03/17 01:26:17;;;;;;;9.30;5.00;;;;;;;-4.89;41.77;102291.94;4823261;29;20071;-81
2022/03/17 01:28:43;;;;;;;9.02;4.82;;;;;;;-5.64;41.32;102167.38;4853353;29;20072;-81
2022/03/17 01:31:11;;;;;;;14.23;5.20;;;;;;;-4.70;41.66;102331.78;4842247;29;20631;-82
2022/03/17 01:33:37;;;;;;;11.07;5.80;;;;;;;-4.74;41.85;102324.63;4838455;29;20042;-81
2022/03/17 01:36:03;;;;;;;8.85;4.97;;;;;;;-5.41;41.69;102229.53;4839861;29;20079;-83
2022/03/17 01:38:29;;;;;;;8.38;4.97;;;;;;;-5.25;41.49;102277.59;4853359;29;20093;-80
2022/03/17 01:41:47;;;;;;;9.70;4.90;;;;;;;-5.00;42.28;102323.97;4822893;29;20049;-82
2022/03/17 01:44:13;;;;;;;9.23;4.40;;;;;;;-6.10;42.13;102138.56;4830556;29;20045;-83
2022/03/17 01:52:16;;;;;;;12.07;5.05;;;;;;;-5.05;42.14;102347.16;4824175;29;20046;-81
2022/03/17 01:54:44;;;;;;;11.68;4.90;;;;;;;-5.37;42.32;102292.56;4854240;29;20085;-79
2022/03/17 01:57:11;;;;;;;7.72;4.30;;;;;;;-5.06;42.14;102342.81;4824590;29;20413;-80
2022/03/17 01:59:39;;;;;;;9.73;4.38;;;;;;;-5.20;42.14;102319.56;4843193;29;20046;-82
2022/03/17 02:02:10;;;;;;;9.30;4.72;;;;;;;-5.18;42.29;102314.59;4823615;29;20408;-80
2022/03/17 02:04:37;;;;;;;12.73;5.07;;;;;;;-5.31;42.23;102303.31;4840162;29;20061;-79
2022/03/17 02:07:05;;;;;;;7.68;4.75;;;;;;;-5.18;42.40;102319.69;4853340;29;20153;-83
2022/03/17 02:09:33;;;;;;;8.13;4.78;;;;;;;-5.30;42.40;102305.09;4843447;29;20710;-79
2022/03/17 02:14:52;;;;;;;8.73;4.55;;;;;;;-5.41;41.78;102308.22;4858559;29;20069;-82
2022/03/17 02:17:18;;;;;;;7.88;4.70;;;;;;;-5.29;42.26;102332.25;4841753;29;20038;-80
2022/03/17 02:19:45;;;;;;;9.93;4.60;;;;;;;-5.53;42.21;102297.78;4859062;29;20057;-80
2022/03/17 02:22:13;;;;;;;11.85;5.20;;;;;;;-5.31;42.16;102337.94;4844702;29;20799;-80
2022/03/17 02:27:30;;;;;;;10.43;4.82;;;;;;;-5.34;42.25;102338.53;4856752;29;20081;-79
2022/03/17 02:29:57;;;;;;;10.32;4.22;;;;;;;-5.24;42.61;102352.09;4860136;29;20094;-81
2022/03/17 02:32:23;;;;;;;8.45;4.45;;;;;;;-5.59;42.22;102302.28;4844511;29;20045;-80
2022/03/17 02:34:49;;;;;;;9.73;4.15;;;;;;;-5.60;42.50;102303.94;4856613;29;20080;-82
2022/03/17 02:37:16;;;;;;;8.57;3.92;;;;;;;-5.50;42.35;102323.47;4833365;29;20147;-81
2022/03/17 02:39:42;;;;;;;8.77;4.28;;;;;;;-5.33;42.46;102357.19;4827387;29;20410;-79
2022/03/17 02:42:12;;;;;;;8.05;4.22;;;;;;;-5.80;42.35;102290.97;4841884;29;20053;-81
2022/03/17 02:44:39;;;;;;;11.57;4.95;;;;;;;-5.39;42.68;102348.97;4855838;29;20046;-82
2022/03/17 02:47:06;;;;;;;10.40;4.75;;;;;;;-5.34;42.67;102379.16;4855986;29;20132;-80
2022/03/17 02:49:33;;;;;;;11.15;4.28;;;;;;;-5.34;42.38;102369.00;4858121;29;20088;-82
2022/03/17 02:52:01;;;;;;;8.27;4.47;;;;;;;-5.36;42.49;102379.75;4843419;29;20056;-81
2022/03/17 02:54:27;;;;;;;9.05;4.53;;;;;;;-5.37;42.29;102391.56;4827354;29;20147;-80
2022/03/17 02:56:53;;;;;;;8.57;4.40;;;;;;;-5.38;42.73;102399.00;4840946;29;20482;-82
2022/03/17 02:59:19;;;;;;;9.73;4.80;;;;;;;-5.54;42.66;102378.88;4856413;29;20068;-80
2022/03/17 03:01:46;;;;;;;10.25;5.03;;;;;;;-5.53;42.15;102403.50;4842825;29;20041;-80
2022/03/17 03:04:16;;;;;;;9.43;4.70;;;;;;;-5.49;42.78;102414.09;4848865;29;20073;-80
2022/03/17 03:06:47;;;;;;;12.32;5.10;;;;;;;-5.51;42.58;102407.97;4841860;29;20075;-80
2022/03/17 03:09:14;;;;;;;8.95;4.70;;;;;;;-6.02;42.91;102319.34;4856094;29;20057;-79
2022/03/17 03:11:40;;;;;;;9.60;5.05;;;;;;;-5.76;42.81;102382.72;4825874;29;20057;-79
2022/03/17 03:14:07;;;;;;;9.13;5.10;;;;;;;-5.75;43.02;102392.13;4841960;29;21103;-80
2022/03/17 03:16:35;;;;;;;11.07;5.55;;;;;;;-5.91;43.00;102382.09;4841593;29;20046;-81
2022/03/17 03:19:02;;;;;;;11.68;5.57;;;;;;;-5.52;43.00;102439.16;4848541;29;20707;-80
2022/03/17 03:21:28;;;;;;;11.57;6.20;;;;;;;-5.74;42.73;102382.91;4846472;29;20064;-79
2022/03/17 03:23:54;;;;;;;11.88;5.97;;;;;;;-5.58;42.52;102448.72;4855462;29;20049;-81
2022/03/17 03:26:20;;;;;;;13.10;5.57;;;;;;;-5.81;42.50;102399.13;4846819;29;20140;-78
2022/03/17 03:28:46;;;;;;;11.35;5.43;;;;;;;-5.76;42.89;102438.53;4841479;29;20046;-81
2022/03/17 03:31:12;;;;;;;28.88;11.15;;;;;;;-5.65;42.96;102444.66;4858291;29;20048;-81
2022/03/17 03:33:38;;;;;;;11.00;5.50;;;;;;;-5.77;42.58;102424.06;4810666;29;20049;-79
2022/03/17 03:38:50;;;;;;;11.20;5.10;;;;;;;-5.80;43.16;102421.22;4845285;29;20289;-81
2022/03/17 03:41:18;;;;;;;9.95;5.00;;;;;;;-6.07;42.38;102383.91;4841802;29;20058;-83
2022/03/17 03:43:44;;;;;;;12.13;5.43;;;;;;;-5.80;43.00;102426.28;4858933;29;20129;-80
2022/03/17 03:46:10;;;;;;;8.40;4.68;;;;;;;-5.81;42.82;102421.94;4826149;29;20162;-81
2022/03/17 03:48:38;;;;;;;12.65;5.60;;;;;;;-5.80;42.61;102426.28;4826643;29;20057;-78
2022/03/17 03:51:04;;;;;;;10.45;5.55;;;;;;;-5.69;42.70;102445.09;4842073;29;20129;-79
2022/03/17 03:54:13;;;;;;;13.25;5.15;;;;;;;-5.73;43.13;102437.06;4843647;29;20050;-80
2022/03/17 03:56:16;;;;;;;8.98;4.95;;;;;;;-5.59;42.86;102457.06;4842071;29;20050;-81
2022/03/17 03:58:43;;;;;;;8.75;4.88;;;;;;;-5.50;42.96;102460.53;4842922;29;20050;-79
2022/03/17 04:01:09;;;;;;;9.82;4.80;;;;;;;-5.57;42.67;102437.81;4844302;29;20049;-81
2022/03/17 04:03:35;;;;;;;9.60;4.72;;;;;;;-5.40;43.15;102463.94;4860323;29;20046;-79
2022/03/17 04:06:01;;;;;;;14.32;4.82;;;;;;;-5.34;42.75;102437.56;4857229;29;20053;-80
2022/03/17 04:08:27;;;;;;;7.82;4.13;;;;;;;-5.10;42.70;102458.47;4845251;29;20098;-78
2022/03/17 04:10:55;;;;;;;11.00;5.00;;;;;;;-5.07;42.58;102442.59;4842676;29;20053;-79
2022/03/17 04:13:22;;;;;;;11.02;4.60;;;;;;;-5.11;42.73;102420.19;4872772;29;20182;-79
2022/03/17 04:15:48;;;;;;;13.38;4.63;;;;;;;-5.00;42.43;102411.97;4873036;29;20049;-79
2022/03/17 04:18:14;;;;;;;11.05;4.85;;;;;;;-4.55;41.59;102474.66;4844935;29;20042;-78
2022/03/17 04:20:40;;;;;;;14.38;5.90;;;;;;;-4.45;41.81;102476.44;4825929;29;20057;-79
2022/03/17 04:23:06;;;;;;;9.40;4.57;;;;;;;-4.46;41.82;102451.75;4844918;29;20141;-80
2022/03/17 04:25:32;;;;;;;8.60;4.50;;;;;;;-4.09;42.08;102478.13;4844103;29;20045;-81
2022/03/17 04:27:58;;;;;;;10.07;4.78;;;;;;;-4.06;41.74;102473.28;4840563;29;20049;-79
2022/03/17 04:30:26;;;;;;;7.40;4.43;;;;;;;-3.88;41.69;102453.75;4843412;29;20049;-80
2022/03/17 04:32:52;;;;;;;11.63;5.00;;;;;;;-4.17;41.44;102362.91;4837348;29;20053;-81
2022/03/17 04:35:18;;;;;;;9.63;4.68;;;;;;;-3.08;41.09;102448.97;4858953;29;20052;-79
2022/03/17 04:37:44;;;;;;;18.08;5.50;;;;;;;-2.40;40.41;102494.81;4844871;29;20053;-80
2022/03/17 04:40:11;;;;;;;8.35;4.63;;;;;;;-2.19;39.92;102475.34;4840521;29;20050;-82
2022/03/17 04:42:37;;;;;;;12.88;4.68;;;;;;;-2.10;38.53;102463.41;4850936;29;20490;-78
2022/03/17 04:45:03;;;;;;;8.82;4.70;;;;;;;-1.73;39.35;102486.03;4843898;29;20140;-77
2022/03/17 04:47:30;;;;;;;9.88;4.75;;;;;;;-1.70;39.08;102478.66;4848125;29;20038;-78
2022/03/17 04:49:56;;;;;;;10.20;5.13;;;;;;;-1.39;39.21;102466.75;4849744;29;20113;-77
2022/03/17 04:55:07;;;;;;;8.30;4.30;;;;;;;0.91;38.47;102463.91;4862545;29;20041;-80
2022/03/17 04:57:34;;;;;;;9.40;4.47;;;;;;;2.84;37.01;102483.16;4849151;29;20045;-79
2022/03/17 05:00:00;;;;;;;13.40;5.35;;;;;;;4.53;34.99;102489.28;4836654;29;20110;-79
2022/03/17 05:02:26;;;;;;;8.68;4.50;;;;;;;5.88;33.63;102489.06;4879330;29;20045;-80
2022/03/17 05:04:52;;;;;;;9.13;4.60;;;;;;;7.00;31.92;102461.06;4863552;29;20125;-79
2022/03/17 05:07:19;;;;;;;9.43;5.18;;;;;;;7.88;30.82;102434.84;4852868;29;20042;-79
2022/03/17 05:09:45;;;;;;;10.57;5.40;;;;;;;9.21;29.36;102462.88;4849610;29;20037;-79
2022/03/17 05:12:14;;;;;;;10.70;5.03;;;;;;;10.47;28.23;102490.06;4835639;29;20500;-82
2022/03/17 05:14:40;;;;;;;10.68;5.35;;;;;;;10.95;27.08;102438.63;4864346;29;20052;-80
2022/03/17 05:17:06;;;;;;;9.77;5.80;;;;;;;11.87;26.26;102453.56;4853468;29;20124;-79
2022/03/17 05:19:33;;;;;;;13.43;6.10;;;;;;;12.85;25.10;102483.94;4843343;29;20048;-80
2022/03/17 05:22:00;;;;;;;15.70;6.75;;;;;;;13.44;24.23;102472.28;4841505;29;20150;-79
2022/03/17 05:24:26;;;;;;;12.82;5.53;;;;;;;14.19;23.18;102492.97;4852122;29;20042;-80
2022/03/17 05:26:54;;;;;;;9.20;5.22;;;;;;;14.99;22.54;102491.75;4865725;29;20042;-80
2022/03/17 05:29:21;;;;;;;8.57;5.63;;;;;;;15.41;21.99;102481.88;4830315;29;20144;-81
2022/03/17 05:31:47;;;;;;;12.10;5.88;;;;;;;16.12;21.06;102484.50;4854228;29;20038;-81
2022/03/17 05:34:16;;;;;;;11.55;6.43;;;;;;;16.51;20.31;102455.97;4843394;29;20145;-82
2022/03/17 05:36:43;;;;;;;14.98;5.70;;;;;;;17.29;19.60;102479.34;4828169;29;20101;-81
2022/03/17 05:39:09;;;;;;;11.88;6.63;;;;;;;17.92;19.03;102468.19;4840455;29;20076;-80
2022/03/17 05:41:35;;;;;;;13.00;6.03;;;;;;;18.55;18.33;102447.22;4840511;29;20073;-81
2022/03/17 05:44:01;;;;;;;11.52;6.25;;;;;;;19.38;17.54;102481.44;4839902;29;20070;-80
2022/03/17 05:46:27;;;;;;;11.55;6.40;;;;;;;19.75;16.82;102455.72;4839965;29;20037;-83
2022/03/17 05:48:54;;;;;;;13.27;6.18;;;;;;;19.95;16.80;102439.81;4846473;29;20332;-80
2022/03/17 05:51:20;;;;;;;13.85;6.70;;;;;;;20.60;16.31;102453.41;4847170;29;20144;-81
2022/03/17 05:53:47;;;;;;;12.65;6.88;;;;;;;21.18;15.89;102458.16;4840402;29;20136;-82
2022/03/17 05:56:13;;;;;;;12.27;6.78;;;;;;;21.62;15.33;102485.91;4837711;29;20045;-80
2022/03/17 05:58:39;;;;;;;11.02;6.70;;;;;;;21.74;14.85;102465.44;4824150;29;20046;-82
2022/03/17 06:01:05;;;;;;;12.15;5.97;;;;;;;22.42;14.71;102475.03;4838990;29;20114;-82
2022/03/17 06:03:31;;;;;;;9.85;6.20;;;;;;;22.77;14.18;102468.28;4839624;29;20064;-80
2022/03/17 06:05:57;;;;;;;13.00;7.07;;;;;;;23.31;13.51;102477.91;4854496;29;20182;-82
2022/03/17 06:08:23;;;;;;;14.18;6.72;;;;;;;23.70;13.15;102489.53;4838303;29;20050;-81
2022/03/17 06:10:51;;;;;;;13.85;6.47;;;;;;;24.28;13.15;102478.47;4841213;29;20045;-81
2022/03/17 06:13:18;;;;;;;17.33;6.25;;;;;;;24.92;12.76;102483.13;4837498;29;20527;-81
2022/03/17 06:15:44;;;;;;;10.85;6.20;;;;;;;25.17;12.17;102456.66;4839284;29;20046;-82
2022/03/17 06:18:11;;;;;;;16.30;6.93;;;;;;;25.75;11.76;102479.00;4847656;29;20046;-79
2022/03/17 06:20:38;;;;;;;10.43;6.10;;;;;;;26.31;11.80;102484.34;4848399;29;20582;-80
2022/03/17 06:23:06;;;;;;;10.50;5.65;;;;;;;26.75;11.53;102480.19;4840826;29;20134;-82
2022/03/17 06:25:34;;;;;;;15.23;6.60;;;;;;;27.01;10.77;102473.09;4854160;29;20046;-82
2022/03/17 06:28:01;;;;;;;16.42;6.53;;;;;;;27.38;10.73;102471.72;4855362;29;20045;-79
2022/03/17 06:30:34;;;;;;;12.23;6.95;;;;;;;27.73;10.62;102449.91;4842247;29;20057;-79
2022/03/17 06:33:01;;;;;;;12.20;6.72;;;;;;;28.26;10.21;102464.75;4842598;29;20100;-81
2022/03/17 06:35:28;;;;;;;8.38;5.75;;;;;;;28.62;10.16;102471.28;4849708;29;20046;-80
2022/03/17 06:37:59;;;;;;;11.98;7.38;;;;;;;28.95;9.96;102478.81;4847659;29;20046;-79
2022/03/17 06:40:27;;;;;;;12.77;7.35;;;;;;;29.37;9.82;102479.59;4846189;29;20042;-81
2022/03/17 06:42:55;;;;;;;9.63;5.65;;;;;;;29.69;9.65;102493.31;4850295;29;20046;-81
2022/03/17 06:45:22;;;;;;;14.57;5.93;;;;;;;30.01;9.45;102491.78;4832270;29;20714;-81
2022/03/17 06:47:48;;;;;;;16.58;6.05;;;;;;;30.22;8.82;102483.63;4848463;29;20395;-81
2022/03/17 06:50:16;;;;;;;9.75;5.50;;;;;;;30.73;9.05;102489.09;4861717;29;20056;-82
2022/03/17 06:52:43;;;;;;;11.38;5.28;;;;;;;31.08;8.51;102485.50;4860512;29;20065;-80
2022/03/17 06:55:11;;;;;;;9.95;6.35;;;;;;;31.20;8.19;102463.38;4828349;29;20039;-80
2022/03/17 06:57:42;;;;;;;13.40;6.22;;;;;;;31.16;8.62;102479.72;4874159;29;20049;-79
2022/03/17 07:00:13;;;;;;;6.47;4.57;;;;;;;29.79;8.46;102496.44;4846051;29;20041;-80
2022/03/17 07:02:42;;;;;;;10.25;4.50;;;;;;;29.18;8.58;102495.66;4878280;29;20062;-80
2022/03/17 07:05:08;;;;;;;8.27;4.85;;;;;;;28.24;8.31;102483.56;4876887;29;20065;-81
2022/03/17 07:07:35;;;;;;;9.30;4.75;;;;;;;27.67;8.40;102461.75;4861662;29;20042;-81
2022/03/17 07:10:01;;;;;;;9.15;4.55;;;;;;;27.45;8.95;102472.38;4859420;29;20092;-82
2022/03/17 07:12:28;;;;;;;9.00;4.65;;;;;;;26.77;8.53;102452.53;4857403;29;20045;-82
2022/03/17 07:14:56;;;;;;;7.68;4.13;;;;;;;26.01;8.74;102483.50;4840596;29;20050;-82
2022/03/17 07:17:22;;;;;;;7.78;3.80;;;;;;;25.13;9.15;102441.69;4842046;29;20106;-84
2022/03/17 07:22:25;;;;;;;5.70;3.55;;;;;;;24.80;9.19;102500.28;4840325;29;20095;-80
2022/03/17 07:24:53;;;;;;;7.28;4.00;;;;;;;25.13;8.96;102508.28;4841572;29;20098;-79
2022/03/17 07:27:21;;;;;;;5.45;3.50;;;;;;;25.29;8.95;102511.38;4838400;29;20363;-81
2022/03/17 07:29:48;;;;;;;5.03;3.25;;;;;;;25.86;9.34;102501.75;4856448;29;20042;-82
2022/03/17 07:32:14;;;;;;;5.18;3.58;;;;;;;26.08;8.96;102484.19;4841178;29;20098;-82
2022/03/17 07:34:42;;;;;;;15.15;4.15;;;;;;;25.99;9.04;102509.34;4825706;29;20042;-81
2022/03/17 07:37:08;;;;;;;8.00;3.95;;;;;;;26.26;8.86;102496.94;4856405;29;20525;-81
2022/03/17 07:39:35;;;;;;;7.18;3.78;;;;;;;26.40;8.63;102504.50;4839194;29;20038;-82
2022/03/17 07:42:04;;;;;;;6.60;3.92;;;;;;;26.58;8.33;102492.34;4839656;29;20046;-81
2022/03/17 07:44:50;;;;;;;9.00;3.60;;;;;;;26.87;8.83;102486.94;4839557;29;20053;-80
2022/03/17 07:47:35;;;;;;;4.90;3.75;;;;;;;27.62;8.50;102495.81;4836612;29;20061;-82
2022/03/17 07:50:02;;;;;;;11.52;6.43;;;;;;;27.54;8.36;102439.09;4843888;29;20073;-82
2022/03/17 07:52:29;;;;;;;7.60;3.90;;;;;;;27.92;8.37;102499.06;4843526;29;20049;-81
2022/03/17 07:54:55;;;;;;;5.50;3.65;;;;;;;27.65;8.27;102501.03;4841608;29;20530;-81
2022/03/17 07:57:21;;;;;;;7.65;3.88;;;;;;;28.55;8.15;102484.94;4840804;29;20046;-79
2022/03/17 07:59:47;;;;;;;5.93;3.63;;;;;;;29.60;7.78;102502.69;4857740;29;20137;-81
2022/03/17 08:02:14;;;;;;;5.68;3.75;;;;;;;29.74;7.72;102483.25;4856859;29;20549;-80
2022/03/17 08:04:40;;;;;;;7.22;3.60;;;;;;;29.60;7.72;102516.09;4826326;29;20045;-81
2022/03/17 08:07:09;;;;;;;6.35;3.53;;;;;;;29.35;7.20;102481.50;4840756;29;20048;-80
2022/03/17 08:09:35;;;;;;;5.78;4.00;;;;;;;29.59;7.45;102490.22;4840241;29;20340;-81
2022/03/17 08:12:01;;;;;;;7.05;3.53;;;;;;;30.26;7.41;102516.53;4839902;29;20106;-80
2022/03/17 08:14:27;;;;;;;5.40;4.18;;;;;;;30.63;7.28;102496.78;4841218;29;20049;-80
2022/03/17 08:16:53;;;;;;;6.75;3.67;;;;;;;30.50;6.94;102496.50;4847717;29;20077;-79
2022/03/17 08:19:19;;;;;;;4.68;3.30;;;;;;;29.65;6.94;102527.47;4841281;29;20045;-81
2022/03/17 08:21:45;;;;;;;3.80;3.30;;;;;;;29.65;7.20;102530.16;4847458;29;20061;-81
2022/03/17 08:24:10;;;;;;;6.30;4.03;;;;;;;29.13;6.89;102511.97;4847837;29;20049;-80
2022/03/17 08:27:01;;;;;;;6.55;3.65;;;;;;;29.07;7.11;102529.16;4854411;29;20336;-81
2022/03/17 08:30:05;;;;;;;6.43;3.95;;;;;;;27.33;7.59;102522.69;4835103;29;20046;-82
2022/03/17 08:32:36;;;;;;;6.53;4.28;;;;;;;28.62;7.84;102500.72;4837135;29;20045;-83
2022/03/17 08:35:14;;;;;;;9.32;4.57;;;;;;;29.88;7.47;102510.28;4849262;29;20056;-82
2022/03/17 08:37:45;;;;;;;8.43;3.80;;;;;;;29.78;7.37;102519.72;4843724;29;20052;-82
2022/03/17 08:40:13;;;;;;;4.65;3.10;;;;;;;30.17;7.46;102509.81;4841320;29;20050;-80
2022/03/17 08:42:40;;;;;;;7.38;3.53;;;;;;;30.30;7.04;102510.97;4840970;29;20045;-82
2022/03/17 08:50:42;;;;;;;8.02;3.50;;;;;;;28.96;7.00;102489.44;4840378;29;20101;-82
2022/03/17 08:53:09;;;;;;;7.32;2.95;;;;;;;27.74;7.10;102510.50;4849223;29;20137;-82
2022/03/17 08:55:37;;;;;;;5.07;3.20;;;;;;;27.10;7.12;102459.41;4844936;29;20049;-83
2022/03/17 08:58:07;;;;;;;5.85;3.53;;;;;;;27.81;7.48;102533.41;4848356;29;20048;-82
2022/03/17 09:00:36;;;;;;;;;;;;;;;27.80;7.26;102526.31;4840904;29;20045;-84
2022/03/17 09:03:04;;;;;;;6.28;3.35;;;;;;;27.58;7.28;102412.19;4839590;29;19957;-82
2022/03/17 09:05:46;;;;;;;6.78;3.80;;;;;;;27.42;7.60;102489.38;4839240;29;20072;-85
2022/03/17 09:08:12;;;;;;;6.85;3.47;;;;;;;26.49;7.66;102395.69;4826193;29;20406;-82
2022/03/17 09:10:40;;;;;;;7.15;3.88;;;;;;;27.19;7.78;102440.34;4856368;29;20077;-84
2022/03/17 09:13:13;;;;;;;9.82;4.38;;;;;;;28.18;7.80;102541.81;4846446;29;20106;-83
2022/03/17 09:15:42;;;;;;;5.20;3.72;;;;;;;28.25;7.55;102490.66;4845171;29;20080;-84
2022/03/17 09:18:10;;;;;;;5.90;3.47;;;;;;;26.91;7.88;102376.41;4842215;29;20053;-81
2022/03/17 09:20:41;;;;;;;5.30;4.70;;;;;;;27.26;8.08;102446.31;4846519;29;20077;-81
2022/03/17 09:23:13;;;;;;;5.55;3.55;;;;;;;28.61;7.71;102545.41;4845999;29;20049;-82
2022/03/17 09:25:42;;;;;;;6.65;3.50;;;;;;;28.89;7.88;102430.84;4840259;29;20045;-81
2022/03/17 09:28:14;;;;;;;4.53;3.53;;;;;;;28.24;7.38;102435.38;4840730;29;20052;-79
2022/03/17 09:30:40;;;;;;;7.78;3.47;;;;;;;28.14;7.32;102505.41;4853056;29;20081;-79
2022/03/17 09:33:09;;;;;;;7.55;3.22;;;;;;;27.93;7.07;102516.88;4854389;29;20077;-79
2022/03/17 09:35:35;;;;;;;14.55;3.65;;;;;;;27.85;7.32;102527.00;4840941;29;20050;-80
2022/03/17 09:38:02;;;;;;;7.03;3.28;;;;;;;27.10;7.42;102523.53;4825818;29;20057;-81
2022/03/17 09:40:28;;;;;;;9.20;3.58;;;;;;;26.16;7.28;102520.38;4856515;29;20050;-79
2022/03/17 09:43:18;;;;;;;6.07;3.22;;;;;;;26.43;7.87;102509.75;4843439;29;20068;-79
2022/03/17 09:45:50;;;;;;;5.07;3.00;;;;;;;26.73;8.05;102522.09;4844703;29;20121;-79
2022/03/17 09:48:17;;;;;;;2.35;2.10;;;;;;;25.60;7.27;102467.00;4855534;29;20046;-80
2022/03/17 09:50:46;;;;;;;4.50;2.60;;;;;;;24.94;7.92;102527.41;4841018;29;20093;-81
2022/03/17 09:53:12;;;;;;;7.38;2.80;;;;;;;24.40;7.53;102496.81;4839650;29;20154;-81
2022/03/17 09:55:43;;;;;;;8.32;3.10;;;;;;;23.79;7.96;102526.53;4822799;29;20053;-81
2022/03/17 09:58:10;;;;;;;6.15;5.25;;;;;;;23.57;8.76;102508.41;4823617;29;20533;-79
2022/03/17 10:00:48;;;;;;;5.30;2.80;;;;;;;24.42;8.43;102504.75;4841533;29;20053;-79
2022/03/17 10:03:25;;;;;;;4.88;3.63;;;;;;;24.88;8.44;102518.72;4839266;29;20064;-80
2022/03/17 10:05:53;;;;;;;5.55;2.97;;;;;;;24.65;8.52;102512.16;4839568;29;20105;-80
2022/03/17 10:08:20;;;;;;;5.53;2.63;;;;;;;25.66;8.22;102506.81;4838768;29;20136;-78
2022/03/17 10:10:49;;;;;;;6.45;2.72;;;;;;;25.25;8.33;102497.28;4839736;29;20117;-80
2022/03/17 10:13:18;;;;;;;3.03;2.53;;;;;;;25.64;8.29;102508.66;4839394;29;20104;-79
2022/03/17 10:16:17;;;;;;;6.45;2.72;;;;;;;26.60;8.14;102501.19;4815509;29;20045;-82
2022/03/17 10:18:45;;;;;;;11.02;2.92;;;;;;;27.57;7.75;102505.81;4840715;29;20410;-79
2022/03/17 10:21:24;;;;;;;4.20;2.30;;;;;;;26.91;7.85;102497.47;4838651;29;20072;-79
2022/03/17 10:24:03;;;;;;;3.80;2.58;;;;;;;23.61;7.85;102504.75;4837340;29;20316;-79
2022/03/17 10:26:51;;;;;;;5.10;2.45;;;;;;;20.63;9.18;102516.00;4841333;29;20054;-80
2022/03/17 10:29:25;;;;;;;4.35;2.75;;;;;;;18.61;9.55;102499.94;4839330;29;20097;-80
2022/03/17 10:31:59;;;;;;;5.95;2.67;;;;;;;17.53;10.06;102521.59;4853101;29;20053;-78
2022/03/17 10:34:31;;;;;;;4.45;2.40;;;;;;;16.38;10.70;102518.03;4840025;29;20049;-79
2022/03/17 10:37:08;;;;;;;4.60;2.53;;;;;;;15.12;11.04;102521.66;4859110;29;20081;-80
2022/03/17 10:39:46;;;;;;;3.67;2.30;;;;;;;14.05;11.61;102535.44;4850768;29;20142;-79
2022/03/17 10:42:15;;;;;;;9.55;3.63;;;;;;;13.35;11.87;102538.31;4816620;29;20138;-79
2022/03/17 10:44:49;;;;;;;9.15;2.80;;;;;;;12.68;12.42;102518.38;4845065;29;20140;-80
2022/03/17 10:47:26;;;;;;;4.13;2.53;;;;;;;12.13;13.03;102530.81;4843249;29;20050;-80
2022/03/17 10:50:00;;;;;;;9.18;4.05;;;;;;;11.58;12.92;102539.66;4856327;29;20045;-81
2022/03/17 10:53:02;;;;;;;9.65;3.50;;;;;;;11.08;13.67;102533.72;4843641;29;20052;-80
2022/03/17 10:55:32;;;;;;;7.07;2.88;;;;;;;10.33;13.72;102512.06;4840719;29;20211;-80
2022/03/17 10:58:13;;;;;;;9.30;2.78;;;;;;;9.78;14.32;102533.50;4847889;29;20774;-79
2022/03/17 11:00:59;;;;;;;8.73;2.60;;;;;;;9.53;14.78;102539.50;4848732;29;20098;-80
2022/03/17 11:03:25;;;;;;;4.85;2.40;;;;;;;9.16;15.14;102523.31;4831467;29;20057;-80
2022/03/17 11:05:51;;;;;;;6.70;2.30;;;;;;;8.79;15.09;102505.34;4850230;29;20049;-80
2022/03/17 11:08:21;;;;;;;5.60;2.95;;;;;;;8.78;15.30;102521.72;4833322;29;20097;-80
2022/03/17 11:10:47;;;;;;;5.60;2.80;;;;;;;8.46;15.52;102488.38;4863519;29;20042;-81
2022/03/17 11:13:14;;;;;;;4.15;2.22;;;;;;;8.34;15.66;102516.38;4844728;29;20048;-79
2022/03/17 11:15:54;;;;;;;4.75;2.20;;;;;;;7.88;16.17;102526.47;4850033;29;20045;-78
2022/03/17 11:18:21;;;;;;;5.43;2.63;;;;;;;7.42;16.36;102517.44;4848066;29;20042;-80
2022/03/17 11:20:48;;;;;;;2.60;1.95;;;;;;;7.01;16.75;102505.97;4852898;29;20056;-80
2022/03/17 11:23:19;;;;;;;3.90;2.15;;;;;;;6.89;16.77;102516.59;4832480;29;20061;-79
2022/03/17 11:25:56;;;;;;;6.55;2.15;;;;;;;6.56;16.74;102483.06;4809842;29;20542;-78
2022/03/17 11:28:38;;;;;;;4.22;2.30;;;;;;;6.35;17.55;102472.50;4840927;29;20034;-78
2022/03/17 11:31:07;;;;;;;;;;;;;;;6.54;17.05;102518.31;4826961;29;20125;-80
2022/03/17 11:33:36;;;;;;;5.25;2.13;;;;;;;6.17;17.07;102482.00;4826578;29;19920;-79
2022/03/17 11:36:21;;;;;;;26.67;3.25;;;;;;;6.25;16.89;102522.84;4855783;29;20179;-79
2022/03/17 11:39:02;;;;;;;4.45;2.00;;;;;;;5.87;17.22;102501.88;4840659;29;20045;-78
2022/03/17 11:41:33;;;;;;;4.68;2.10;;;;;;;5.76;17.59;102526.25;4841430;29;20042;-78
2022/03/17 11:44:07;;;;;;;6.78;2.58;;;;;;;5.32;18.21;102500.66;4853636;29;20046;-80
2022/03/17 11:46:46;;;;;;;6.65;2.38;;;;;;;5.08;18.03;102479.50;4855578;29;20402;-79
2022/03/17 11:49:24;;;;;;;7.00;2.65;;;;;;;5.09;17.63;102518.31;4841088;29;20546;-78
2022/03/17 11:52:09;;;;;;;5.18;2.45;;;;;;;4.83;18.12;102509.09;4856464;29;20057;-80
2022/03/17 11:54:35;;;;;;;2.88;1.77;;;;;;;4.72;18.56;102490.41;4846822;29;20042;-79
2022/03/17 11:57:06;;;;;;;11.52;2.80;;;;;;;4.58;18.37;102462.88;4841063;29;20801;-79
2022/03/17 11:59:58;;;;;;;3.53;1.95;;;;;;;4.60;18.40;102487.09;4841409;29;20049;-79